sensor_id;sensor_type;location;lat;lon;timestamp;pressure;altitude;pressure_sealevel;temperature;humidity
16100;BME280;8154;50.830;12.082;2024-02-26T00:01:58;98048.91;;;23.33;32.94
16100;BME280;8154;50.830;12.082;2024-02-26T00:04:26;98048.59;;;23.23;33.02
16100;BME280;8154;50.830;12.082;2024-02-26T00:06:53;98047.44;;;23.19;33.33
16100;BME280;8154;50.830;12.082;2024-02-26T00:09:20;98042.66;;;23.21;33.04
16100;BME280;8154;50.830;12.082;2024-02-26T00:11:46;98040.47;;;23.18;33.22
16100;BME280;8154;50.830;12.082;2024-02-26T00:14:12;98037.81;;;23.18;33.22
16100;BME280;8154;50.830;12.082;2024-02-26T00:16:42;98043.13;;;23.18;33.15
16100;BME280;8154;50.830;12.082;2024-02-26T00:19:08;98021.03;;;23.17;32.78
16100;BME280;8154;50.830;12.082;2024-02-26T00:21:52;98031.13;;;23.27;32.89
16100;BME280;8154;50.830;12.082;2024-02-26T00:24:25;98026.41;;;23.29;32.76
16100;BME280;8154;50.830;12.082;2024-02-26T00:26:54;98026.41;;;23.29;32.85
16100;BME280;8154;50.830;12.082;2024-02-26T00:29:23;98023.72;;;23.29;32.97
16100;BME280;8154;50.830;12.082;2024-02-26T00:31:51;98020.47;;;23.27;32.72
16100;BME280;8154;50.830;12.082;2024-02-26T00:34:17;98017.75;;;23.15;33.06
16100;BME280;8154;50.830;12.082;2024-02-26T00:36:44;98012.88;;;23.12;33.03
16100;BME280;8154;50.830;12.082;2024-02-26T00:39:29;98011.84;;;23.13;33.20
16100;BME280;8154;50.830;12.082;2024-02-26T00:41:55;98011.97;;;23.18;32.97
16100;BME280;8154;50.830;12.082;2024-02-26T00:44:29;97997.94;;;23.11;33.06
16100;BME280;8154;50.830;12.082;2024-02-26T00:46:58;98000.03;;;23.21;33.17
16100;BME280;8154;50.830;12.082;2024-02-26T00:49:27;97962.81;;;23.03;32.94
16100;BME280;8154;50.830;12.082;2024-02-26T00:51:56;97954.59;;;23.04;32.97
16100;BME280;8154;50.830;12.082;2024-02-26T00:54:25;97981.97;;;23.23;32.77
16100;BME280;8154;50.830;12.082;2024-02-26T00:56:51;97983.56;;;23.24;32.91
16100;BME280;8154;50.830;12.082;2024-02-26T00:59:17;97975.59;;;23.24;32.76
16100;BME280;8154;50.830;12.082;2024-02-26T01:01:44;97980.81;;;23.19;33.21
16100;BME280;8154;50.830;12.082;2024-02-26T01:04:10;97978.00;;;23.14;33.22
16100;BME280;8154;50.830;12.082;2024-02-26T01:06:40;97972.69;;;23.14;32.95
16100;BME280;8154;50.830;12.082;2024-02-26T01:09:09;97969.44;;;23.12;33.10
16100;BME280;8154;50.830;12.082;2024-02-26T01:11:38;97963.31;;;23.11;33.03
16100;BME280;8154;50.830;12.082;2024-02-26T01:14:06;97963.06;;;23.13;33.27
16100;BME280;8154;50.830;12.082;2024-02-26T01:16:33;97969.34;;;23.18;33.26
16100;BME280;8154;50.830;12.082;2024-02-26T01:18:59;97969.69;;;23.22;33.17
16100;BME280;8154;50.830;12.082;2024-02-26T01:21:25;97958.22;;;23.21;32.88
16100;BME280;8154;50.830;12.082;2024-02-26T01:24:15;97965.31;;;23.27;32.87
16100;BME280;8154;50.830;12.082;2024-02-26T01:26:42;97952.28;;;23.19;32.92
16100;BME280;8154;50.830;12.082;2024-02-26T01:29:11;97954.63;;;23.16;32.94
16100;BME280;8154;50.830;12.082;2024-02-26T01:31:39;97950.41;;;23.08;33.13
16100;BME280;8154;50.830;12.082;2024-02-26T01:34:08;97960.63;;;23.11;33.20
16100;BME280;8154;50.830;12.082;2024-02-26T01:36:36;97957.97;;;23.11;33.17
16100;BME280;8154;50.830;12.082;2024-02-26T01:39:03;97960.41;;;23.13;32.99
16100;BME280;8154;50.830;12.082;2024-02-26T01:41:29;97953.44;;;23.12;33.08
16100;BME280;8154;50.830;12.082;2024-02-26T01:44:15;97939.41;;;23.05;33.03
16100;BME280;8154;50.830;12.082;2024-02-26T01:46:41;97956.22;;;23.17;32.90
16100;BME280;8154;50.830;12.082;2024-02-26T01:49:08;97949.28;;;23.16;32.99
16100;BME280;8154;50.830;12.082;2024-02-26T01:51:43;97961.09;;;23.20;32.90
16100;BME280;8154;50.830;12.082;2024-02-26T01:54:10;97969.47;;;23.23;32.85
16100;BME280;8154;50.830;12.082;2024-02-26T01:56:40;97966.16;;;23.10;33.05
16100;BME280;8154;50.830;12.082;2024-02-26T01:59:08;97960.13;;;23.03;33.33
16100;BME280;8154;50.830;12.082;2024-02-26T02:01:35;97969.53;;;23.05;33.27
16100;BME280;8154;50.830;12.082;2024-02-26T02:04:02;97969.88;;;23.09;33.04
16100;BME280;8154;50.830;12.082;2024-02-26T02:06:28;97969.88;;;23.09;33.04
16100;BME280;8154;50.830;12.082;2024-02-26T02:09:14;97956.44;;;23.04;32.95
16100;BME280;8154;50.830;12.082;2024-02-26T02:11:43;97958.06;;;23.05;33.12
16100;BME280;8154;50.830;12.082;2024-02-26T02:14:13;97971.19;;;23.18;32.87
16100;BME280;8154;50.830;12.082;2024-02-26T02:16:40;97971.75;;;23.20;32.98
16100;BME280;8154;50.830;12.082;2024-02-26T02:19:09;97974.59;;;23.25;32.99
16100;BME280;8154;50.830;12.082;2024-02-26T02:21:37;97971.75;;;23.20;32.80
16100;BME280;8154;50.830;12.082;2024-02-26T02:24:22;97976.97;;;23.15;33.15
16100;BME280;8154;50.830;12.082;2024-02-26T02:26:48;97986.09;;;23.07;33.29
16100;BME280;8154;50.830;12.082;2024-02-26T02:29:14;97987.94;;;23.07;33.09
16100;BME280;8154;50.830;12.082;2024-02-26T02:31:41;97987.16;;;23.06;33.05
16100;BME280;8154;50.830;12.082;2024-02-26T02:34:13;97977.75;;;23.04;33.07
16100;BME280;8154;50.830;12.082;2024-02-26T02:37:00;97982.38;;;23.08;33.18
16100;BME280;8154;50.830;12.082;2024-02-26T02:39:26;97976.41;;;23.13;33.20
16100;BME280;8154;50.830;12.082;2024-02-26T02:41:55;97972.00;;;23.18;32.84
16100;BME280;8154;50.830;12.082;2024-02-26T02:44:21;97964.00;;;23.18;33.07
16100;BME280;8154;50.830;12.082;2024-02-26T02:46:48;97966.06;;;23.16;32.89
16100;BME280;8154;50.830;12.082;2024-02-26T02:49:16;97964.47;;;23.15;32.70
16100;BME280;8154;50.830;12.082;2024-02-26T02:51:42;97970.00;;;23.14;32.95
16100;BME280;8154;50.830;12.082;2024-02-26T02:54:09;97963.50;;;23.10;33.11
16100;BME280;8154;50.830;12.082;2024-02-26T02:56:38;97970.34;;;23.06;33.25
16100;BME280;8154;50.830;12.082;2024-02-26T03:54:31;97978.41;;;21.12;36.71
16100;BME280;8154;50.830;12.082;2024-02-26T03:56:57;97978.97;;;21.45;36.14
16100;BME280;8154;50.830;12.082;2024-02-26T03:59:23;97982.84;;;21.67;35.75
16100;BME280;8154;50.830;12.082;2024-02-26T04:01:53;97998.41;;;21.88;35.38
16100;BME280;8154;50.830;12.082;2024-02-26T04:04:20;97991.28;;;22.07;35.04
16100;BME280;8154;50.830;12.082;2024-02-26T04:06:48;97985.44;;;22.16;34.74
16100;BME280;8154;50.830;12.082;2024-02-26T04:09:16;97985.28;;;22.29;34.58
16100;BME280;8154;50.830;12.082;2024-02-26T04:11:42;97990.28;;;22.37;34.38
16100;BME280;8154;50.830;12.082;2024-02-26T04:14:09;97988.59;;;22.43;34.21
16100;BME280;8154;50.830;12.082;2024-02-26T04:16:37;98000.19;;;22.48;34.04
16100;BME280;8154;50.830;12.082;2024-02-26T04:19:03;97997.13;;;22.51;33.92
16100;BME280;8154;50.830;12.082;2024-02-26T04:21:46;98000.38;;;22.53;33.86
16100;BME280;8154;50.830;12.082;2024-02-26T04:24:15;97999.34;;;22.54;33.97
16100;BME280;8154;50.830;12.082;2024-02-26T04:26:44;97998.88;;;22.57;33.91
16100;BME280;8154;50.830;12.082;2024-02-26T04:29:13;97994.16;;;22.59;33.71
16100;BME280;8154;50.830;12.082;2024-02-26T04:31:42;98002.28;;;22.64;33.73
16100;BME280;8154;50.830;12.082;2024-02-26T04:34:08;97992.19;;;22.66;33.53
16100;BME280;8154;50.830;12.082;2024-02-26T04:36:34;98002.84;;;22.66;33.70
16100;BME280;8154;50.830;12.082;2024-02-26T04:39:18;98011.00;;;22.71;33.55
16100;BME280;8154;50.830;12.082;2024-02-26T04:41:44;97997.44;;;22.73;33.52
16100;BME280;8154;50.830;12.082;2024-02-26T04:44:14;98003.81;;;22.72;33.50
16100;BME280;8154;50.830;12.082;2024-02-26T04:46:43;97998.50;;;22.72;33.39
16100;BME280;8154;50.830;12.082;2024-02-26T04:49:12;98001.53;;;22.76;33.54
16100;BME280;8154;50.830;12.082;2024-02-26T04:51:40;97999.44;;;22.77;33.44
16100;BME280;8154;50.830;12.082;2024-02-26T04:54:09;97994.78;;;22.73;33.38
16100;BME280;8154;50.830;12.082;2024-02-26T04:56:35;97997.38;;;22.80;33.42
16100;BME280;8154;50.830;12.082;2024-02-26T04:59:20;97987.53;;;22.80;33.33
16100;BME280;8154;50.830;12.082;2024-02-26T05:01:46;97997.38;;;22.80;33.39
16100;BME280;8154;50.830;12.082;2024-02-26T05:04:29;97999.34;;;22.84;33.33
16100;BME280;8154;50.830;12.082;2024-02-26T05:06:58;97991.59;;;22.83;33.23
16100;BME280;8154;50.830;12.082;2024-02-26T05:09:27;97989.75;;;22.83;33.26
16100;BME280;8154;50.830;12.082;2024-02-26T05:11:53;97985.88;;;22.79;33.51
16100;BME280;8154;50.830;12.082;2024-02-26T05:14:20;97991.81;;;22.81;33.25
16100;BME280;8154;50.830;12.082;2024-02-26T05:16:48;97987.53;;;22.80;33.11
16100;BME280;8154;50.830;12.082;2024-02-26T05:19:14;97990.53;;;22.84;33.22
16100;BME280;8154;50.830;12.082;2024-02-26T05:21:41;97984.97;;;22.85;33.33
16100;BME280;8154;50.830;12.082;2024-02-26T05:24:08;97985.44;;;22.82;33.41
16100;BME280;8154;50.830;12.082;2024-02-26T05:26:34;97976.19;;;22.85;33.24
16100;BME280;8154;50.830;12.082;2024-02-26T05:29:20;97981.28;;;22.86;33.23
16100;BME280;8154;50.830;12.082;2024-02-26T05:32:06;97979.66;;;22.85;33.14
16100;BME280;8154;50.830;12.082;2024-02-26T05:34:33;97970.28;;;22.83;33.33
16100;BME280;8154;50.830;12.082;2024-02-26T05:37:00;97967.03;;;22.81;33.30
16100;BME280;8154;50.830;12.082;2024-02-26T05:39:27;97974.00;;;22.82;33.46
16100;BME280;8154;50.830;12.082;2024-02-26T05:41:53;97978.88;;;22.85;33.30
16100;BME280;8154;50.830;12.082;2024-02-26T05:44:38;97979.66;;;22.85;33.37
16100;BME280;8154;50.830;12.082;2024-02-26T05:47:04;97986.63;;;22.86;33.13
16100;BME280;8154;50.830;12.082;2024-02-26T05:49:31;97984.06;;;22.91;33.12
16100;BME280;8154;50.830;12.082;2024-02-26T05:52:00;97985.34;;;22.89;33.20
16100;BME280;8154;50.830;12.082;2024-02-26T05:54:29;97989.63;;;22.90;32.97
16100;BME280;8154;50.830;12.082;2024-02-26T05:56:58;97986.41;;;22.88;33.16
16100;BME280;8154;50.830;12.082;2024-02-26T05:59:24;97982.91;;;22.87;33.09
16100;BME280;8154;50.830;12.082;2024-02-26T06:01:50;97989.53;;;22.85;33.33
16100;BME280;8154;50.830;12.082;2024-02-26T06:04:16;97994.84;;;22.85;33.20
16100;BME280;8154;50.830;12.082;2024-02-26T06:06:45;97896.72;;;22.22;33.42
16100;BME280;8154;50.830;12.082;2024-02-26T06:09:11;97992.41;;;22.83;33.24
16100;BME280;8154;50.830;12.082;2024-02-26T06:11:57;98004.44;;;22.86;33.15
16100;BME280;8154;50.830;12.082;2024-02-26T06:14:26;98001.19;;;22.84;33.30
16100;BME280;8154;50.830;12.082;2024-02-26T06:16:53;98009.31;;;22.89;33.13
16100;BME280;8154;50.830;12.082;2024-02-26T06:19:22;98006.22;;;22.92;33.18
16100;BME280;8154;50.830;12.082;2024-02-26T06:21:49;98016.03;;;22.91;33.22
16100;BME280;8154;50.830;12.082;2024-02-26T06:24:16;98022.50;;;22.84;33.24
16100;BME280;8154;50.830;12.082;2024-02-26T06:26:42;98027.03;;;22.83;33.42
16100;BME280;8154;50.830;12.082;2024-02-26T06:29:08;98022.50;;;22.84;33.33
16100;BME280;8154;50.830;12.082;2024-02-26T06:31:35;98022.50;;;22.84;33.30
16100;BME280;8154;50.830;12.082;2024-02-26T06:34:03;98028.19;;;22.87;33.24
16100;BME280;8154;50.830;12.082;2024-02-26T06:36:32;98013.50;;;22.85;33.30
16100;BME280;8154;50.830;12.082;2024-02-26T06:39:02;98021.47;;;22.85;33.23
16100;BME280;8154;50.830;12.082;2024-02-26T06:41:31;98030.63;;;22.89;33.29
16100;BME280;8154;50.830;12.082;2024-02-26T06:43:58;98033.91;;;22.91;33.22
16100;BME280;8154;50.830;12.082;2024-02-26T06:46:24;98044.31;;;22.92;33.05
16100;BME280;8154;50.830;12.082;2024-02-26T06:48:51;98033.75;;;22.86;33.31
16100;BME280;8154;50.830;12.082;2024-02-26T06:51:18;98047.66;;;22.88;33.32
16100;BME280;8154;50.830;12.082;2024-02-26T06:53:44;98042.34;;;22.88;33.18
16100;BME280;8154;50.830;12.082;2024-02-26T06:56:13;98036.34;;;22.92;33.22
16100;BME280;8154;50.830;12.082;2024-02-26T06:58:41;98047.00;;;22.92;33.28
16100;BME280;8154;50.830;12.082;2024-02-26T07:01:12;98049.66;;;22.92;33.10
16100;BME280;8154;50.830;12.082;2024-02-26T07:03:41;98057.41;;;22.94;33.14
16100;BME280;8154;50.830;12.082;2024-02-26T07:06:08;98059.03;;;22.95;33.19
16100;BME280;8154;50.830;12.082;2024-02-26T07:08:34;98068.06;;;22.94;33.16
16100;BME280;8154;50.830;12.082;2024-02-26T07:11:00;98060.53;;;22.91;33.17
16100;BME280;8154;50.830;12.082;2024-02-26T07:13:26;98064.81;;;22.92;33.22
16100;BME280;8154;50.830;12.082;2024-02-26T07:15:52;98058.88;;;22.90;33.28
16100;BME280;8154;50.830;12.082;2024-02-26T07:18:21;98063.66;;;22.88;33.23
16100;BME280;8154;50.830;12.082;2024-02-26T07:20:50;98060.75;;;22.89;33.38
16100;BME280;8154;50.830;12.082;2024-02-26T07:23:19;98058.88;;;22.90;33.32
16100;BME280;8154;50.830;12.082;2024-02-26T07:25:46;98057.41;;;22.94;33.17
16100;BME280;8154;50.830;12.082;2024-02-26T07:28:14;98054.53;;;22.95;33.15
16100;BME280;8154;50.830;12.082;2024-02-26T07:30:40;98055.78;;;22.93;33.34
16100;BME280;8154;50.830;12.082;2024-02-26T07:33:06;98058.25;;;22.94;33.03
16100;BME280;8154;50.830;12.082;2024-02-26T07:35:33;98071.69;;;22.99;33.03
16100;BME280;8154;50.830;12.082;2024-02-26T07:38:00;98064.13;;;22.96;33.06
16100;BME280;8154;50.830;12.082;2024-02-26T07:40:29;98061.84;;;23.00;33.29
16100;BME280;8154;50.830;12.082;2024-02-26T07:42:57;98058.81;;;22.96;33.06
16100;BME280;8154;50.830;12.082;2024-02-26T07:45:26;98051.50;;;22.92;33.25
16100;BME280;8154;50.830;12.082;2024-02-26T07:47:54;98060.09;;;22.94;33.30
16100;BME280;8154;50.830;12.082;2024-02-26T07:50:21;98060.69;;;22.96;33.17
16100;BME280;8154;50.830;12.082;2024-02-26T07:52:47;98062.66;;;23.00;33.06
16100;BME280;8154;50.830;12.082;2024-02-26T07:55:13;98064.66;;;23.05;33.33
16100;BME280;8154;50.830;12.082;2024-02-26T07:57:42;98057.00;;;23.08;33.07
16100;BME280;8154;50.830;12.082;2024-02-26T08:00:18;98059.88;;;23.07;33.15
16100;BME280;8154;50.830;12.082;2024-02-26T08:02:47;98073.66;;;23.04;33.12
16100;BME280;8154;50.830;12.082;2024-02-26T08:05:16;98067.31;;;23.05;33.23
16100;BME280;8154;50.830;12.082;2024-02-26T08:07:45;98068.94;;;23.06;33.38
16100;BME280;8154;50.830;12.082;2024-02-26T08:10:11;98080.19;;;23.08;33.06
16100;BME280;8154;50.830;12.082;2024-02-26T08:12:37;98082.63;;;23.09;33.04
16100;BME280;8154;50.830;12.082;2024-02-26T08:15:05;98084.47;;;23.09;33.07
16100;BME280;8154;50.830;12.082;2024-02-26T08:17:32;98087.13;;;23.09;33.22
16100;BME280;8154;50.830;12.082;2024-02-26T08:19:59;98081.81;;;23.09;33.12
16100;BME280;8154;50.830;12.082;2024-02-26T08:22:26;98077.53;;;23.08;33.19
16100;BME280;8154;50.830;12.082;2024-02-26T08:24:54;98081.94;;;23.14;33.00
16100;BME280;8154;50.830;12.082;2024-02-26T08:27:23;98080.81;;;23.21;32.95
16100;BME280;8154;50.830;12.082;2024-02-26T08:29:51;98085.09;;;23.22;32.77
16100;BME280;8154;50.830;12.082;2024-02-26T08:32:20;98095.19;;;23.20;33.00
16100;BME280;8154;50.830;12.082;2024-02-26T08:34:46;98094.38;;;23.20;32.82
16100;BME280;8154;50.830;12.082;2024-02-26T08:37:12;98089.03;;;23.20;33.07
16100;BME280;8154;50.830;12.082;2024-02-26T08:39:38;98091.94;;;23.18;33.01
16100;BME280;8154;50.830;12.082;2024-02-26T08:42:05;98096.09;;;23.14;33.05
16100;BME280;8154;50.830;12.082;2024-02-26T08:44:41;98093.28;;;23.09;33.14
16100;BME280;8154;50.830;12.082;2024-02-26T08:47:10;98094.91;;;23.10;33.15
16100;BME280;8154;50.830;12.082;2024-02-26T08:49:43;98096.53;;;23.11;33.11
16100;BME280;8154;50.830;12.082;2024-02-26T08:52:13;98092.59;;;23.14;33.07
16100;BME280;8154;50.830;12.082;2024-02-26T08:54:42;98106.63;;;23.21;32.95
16100;BME280;8154;50.830;12.082;2024-02-26T08:57:09;98104.19;;;23.19;33.16
16100;BME280;8154;50.830;12.082;2024-02-26T08:59:35;98098.19;;;23.24;32.91
16100;BME280;8154;50.830;12.082;2024-02-26T09:02:02;98087.69;;;23.29;32.71
16100;BME280;8154;50.830;12.082;2024-02-26T09:04:28;98084.44;;;23.27;32.73
16100;BME280;8154;50.830;12.082;2024-02-26T09:07:12;98100.44;;;23.27;32.88
16100;BME280;8154;50.830;12.082;2024-02-26T09:09:39;98098.81;;;23.26;32.71
16100;BME280;8154;50.830;12.082;2024-02-26T09:12:06;98104.16;;;23.26;32.96
16100;BME280;8154;50.830;12.082;2024-02-26T09:14:34;98104.56;;;23.23;33.00
16100;BME280;8154;50.830;12.082;2024-02-26T09:17:00;98097.19;;;23.25;32.83
16100;BME280;8154;50.830;12.082;2024-02-26T09:19:27;98105.63;;;23.22;33.18
16100;BME280;8154;50.830;12.082;2024-02-26T09:21:55;98108.75;;;23.19;32.99
16100;BME280;8154;50.830;12.082;2024-02-26T09:24:24;98113.25;;;23.18;33.08
16100;BME280;8154;50.830;12.082;2024-02-26T09:26:50;98103.19;;;23.20;33.01
16100;BME280;8154;50.830;12.082;2024-02-26T09:29:19;98092.38;;;23.15;32.94
16100;BME280;8154;50.830;12.082;2024-02-26T09:31:47;98101.47;;;23.26;33.05
16100;BME280;8154;50.830;12.082;2024-02-26T09:34:16;98091.41;;;23.28;32.85
16100;BME280;8154;50.830;12.082;2024-02-26T09:36:45;98084.31;;;23.22;32.96
16100;BME280;8154;50.830;12.082;2024-02-26T09:39:11;98088.34;;;23.24;32.80
16100;BME280;8154;50.830;12.082;2024-02-26T09:41:59;98088.34;;;23.24;33.03
16100;BME280;8154;50.830;12.082;2024-02-26T09:44:27;98096.56;;;23.23;33.05
16100;BME280;8154;50.830;12.082;2024-02-26T09:46:57;98098.41;;;23.22;32.81
16100;BME280;8154;50.830;12.082;2024-02-26T09:49:24;98086.00;;;23.16;33.03
16100;BME280;8154;50.830;12.082;2024-02-26T09:51:54;98098.53;;;23.16;33.14
16100;BME280;8154;50.830;12.082;2024-02-26T09:54:23;98084.69;;;23.07;33.00
16100;BME280;8154;50.830;12.082;2024-02-26T09:56:59;98099.78;;;23.13;33.24
16100;BME280;8154;50.830;12.082;2024-02-26T09:59:28;98098.53;;;23.16;32.97
16100;BME280;8154;50.830;12.082;2024-02-26T10:01:56;98098.09;;;23.19;32.85
16100;BME280;8154;50.830;12.082;2024-02-26T10:04:24;98103.63;;;23.17;33.18
16100;BME280;8154;50.830;12.082;2024-02-26T10:06:51;98069.25;;;22.98;33.04
16100;BME280;8154;50.830;12.082;2024-02-26T10:09:18;98113.47;;;23.17;32.90
16100;BME280;8154;50.830;12.082;2024-02-26T10:12:05;98105.94;;;23.14;33.05
16100;BME280;8154;50.830;12.082;2024-02-26T10:14:35;98110.59;;;23.18;33.07
16100;BME280;8154;50.830;12.082;2024-02-26T10:17:07;98103.50;;;23.12;32.88
16100;BME280;8154;50.830;12.082;2024-02-26T10:19:37;98103.50;;;23.12;33.13
16100;BME280;8154;50.830;12.082;2024-02-26T10:22:04;98111.13;;;23.09;33.06
16100;BME280;8154;50.830;12.082;2024-02-26T10:24:30;98107.06;;;23.06;33.03
16100;BME280;8154;50.830;12.082;2024-02-26T10:26:57;98110.19;;;23.03;33.24
16100;BME280;8154;50.830;12.082;2024-02-26T10:29:25;98106.69;;;23.03;33.30
16100;BME280;8154;50.830;12.082;2024-02-26T10:31:51;98102.75;;;23.05;33.01
16100;BME280;8154;50.830;12.082;2024-02-26T10:34:21;98119.09;;;23.09;33.30
16100;BME280;8154;50.830;12.082;2024-02-26T10:36:49;98112.72;;;23.10;33.24
16100;BME280;8154;50.830;12.082;2024-02-26T10:39:18;98120.53;;;23.11;33.05
16100;BME280;8154;50.830;12.082;2024-02-26T10:41:47;98106.16;;;23.12;32.97
16100;BME280;8154;50.830;12.082;2024-02-26T10:44:15;98104.75;;;23.10;33.07
16100;BME280;8154;50.830;12.082;2024-02-26T10:46:41;98092.47;;;23.09;33.03
16100;BME280;8154;50.830;12.082;2024-02-26T10:49:13;98087.00;;;23.04;33.06
16100;BME280;8154;50.830;12.082;2024-02-26T10:51:44;98095.22;;;23.02;33.28
16100;BME280;8154;50.830;12.082;2024-02-26T10:54:14;98094.97;;;23.04;33.17
16100;BME280;8154;50.830;12.082;2024-02-26T10:56:45;98098.47;;;23.04;33.33
16100;BME280;8154;50.830;12.082;2024-02-26T10:59:17;98106.25;;;23.06;33.04
16100;BME280;8154;50.830;12.082;2024-02-26T11:01:51;98101.50;;;23.08;33.34
16100;BME280;8154;50.830;12.082;2024-02-26T11:04:18;98096.84;;;23.03;33.30
16100;BME280;8154;50.830;12.082;2024-02-26T11:06:45;98092.91;;;23.06;33.05
16100;BME280;8154;50.830;12.082;2024-02-26T11:09:14;98096.97;;;23.08;33.28
16100;BME280;8154;50.830;12.082;2024-02-26T11:11:41;98099.06;;;23.06;33.28
16100;BME280;8154;50.830;12.082;2024-02-26T11:14:08;98093.81;;;23.00;33.08
16100;BME280;8154;50.830;12.082;2024-02-26T11:16:35;98101.97;;;23.05;33.26
16100;BME280;8154;50.830;12.082;2024-02-26T11:19:06;98108.06;;;23.05;33.08
16100;BME280;8154;50.830;12.082;2024-02-26T11:21:36;98108.31;;;23.04;33.07
16100;BME280;8154;50.830;12.082;2024-02-26T11:24:09;98106.53;;;22.98;33.26
16100;BME280;8154;50.830;12.082;2024-02-26T11:26:42;98098.31;;;22.99;33.24
16100;BME280;8154;50.830;12.082;2024-02-26T11:29:13;98113.41;;;23.05;33.09
16100;BME280;8154;50.830;12.082;2024-02-26T11:32:00;98089.38;;;22.94;33.10
16100;BME280;8154;50.830;12.082;2024-02-26T11:34:27;98112.16;;;23.08;33.12
16100;BME280;8154;50.830;12.082;2024-02-26T11:36:54;98110.06;;;23.10;33.22
16100;BME280;8154;50.830;12.082;2024-02-26T11:39:44;98099.84;;;23.07;33.01
16100;BME280;8154;50.830;12.082;2024-02-26T11:42:15;98116.06;;;23.05;33.31
16100;BME280;8154;50.830;12.082;2024-02-26T11:44:45;98105.63;;;23.04;33.33
16100;BME280;8154;50.830;12.082;2024-02-26T11:47:22;98105.63;;;23.04;33.20
16100;BME280;8154;50.830;12.082;2024-02-26T11:49:49;98091.09;;;22.88;33.30
16100;BME280;8154;50.830;12.082;2024-02-26T11:52:16;98104.56;;;22.93;33.33
16100;BME280;8154;50.830;12.082;2024-02-26T11:57:30;98111.88;;;22.98;33.44
16100;BME280;8154;50.830;12.082;2024-02-26T12:05:12;98117.13;;;23.04;33.09
16100;BME280;8154;50.830;12.082;2024-02-26T12:07:43;98118.03;;;22.98;33.11
16100;BME280;8154;50.830;12.082;2024-02-26T12:10:26;98123.72;;;23.02;33.23
16100;BME280;8154;50.830;12.082;2024-02-26T12:15:31;98126.38;;;23.02;33.34
16100;BME280;8154;50.830;12.082;2024-02-26T12:18:04;98129.06;;;23.02;33.19
16100;BME280;8154;50.830;12.082;2024-02-26T12:20:31;98124.97;;;22.99;33.38
16100;BME280;8154;50.830;12.082;2024-02-26T12:23:16;98123.13;;;23.00;33.28
16100;BME280;8154;50.830;12.082;2024-02-26T12:25:45;98124.28;;;23.04;32.98
16100;BME280;8154;50.830;12.082;2024-02-26T12:28:15;98115.84;;;23.07;33.40
16100;BME280;8154;50.830;12.082;2024-02-26T12:30:45;98116.91;;;23.06;33.21
16100;BME280;8154;50.830;12.082;2024-02-26T12:33:12;98111.53;;;22.94;33.08
16100;BME280;8154;50.830;12.082;2024-02-26T12:35:38;98119.78;;;23.04;33.17
16100;BME280;8154;50.830;12.082;2024-02-26T12:38:06;98124.06;;;23.05;33.07
16100;BME280;8154;50.830;12.082;2024-02-26T12:40:32;98124.53;;;23.02;33.00
16100;BME280;8154;50.830;12.082;2024-02-26T12:42:58;98129.06;;;23.02;33.10
16100;BME280;8154;50.830;12.082;2024-02-26T12:45:43;98128.22;;;23.01;33.14
16100;BME280;8154;50.830;12.082;2024-02-26T12:48:14;98133.56;;;23.01;33.29
16100;BME280;8154;50.830;12.082;2024-02-26T12:50:46;98109.50;;;22.90;33.28
16100;BME280;8154;50.830;12.082;2024-02-26T12:53:16;98126.00;;;22.98;33.37
16100;BME280;8154;50.830;12.082;2024-02-26T12:55:42;98123.72;;;23.02;33.07
16100;BME280;8154;50.830;12.082;2024-02-26T12:58:09;98122.59;;;23.09;33.01
16100;BME280;8154;50.830;12.082;2024-02-26T13:00:35;98114.81;;;23.08;33.18
16100;BME280;8154;50.830;12.082;2024-02-26T13:03:03;98124.88;;;23.06;33.03
16100;BME280;8154;50.830;12.082;2024-02-26T13:05:30;98129.16;;;23.07;33.00
16100;BME280;8154;50.830;12.082;2024-02-26T13:07:59;98134.50;;;23.07;32.98
16100;BME280;8154;50.830;12.082;2024-02-26T13:10:26;98134.72;;;23.05;33.28
16100;BME280;8154;50.830;12.082;2024-02-26T13:12:54;98128.59;;;23.05;33.32
16100;BME280;8154;50.830;12.082;2024-02-26T13:15:21;98139.50;;;23.03;33.30
16100;BME280;8154;50.830;12.082;2024-02-26T13:17:49;98147.63;;;22.90;33.27
16100;BME280;8154;50.830;12.082;2024-02-26T13:20:29;98144.22;;;22.65;32.32
16100;BME280;8154;50.830;12.082;2024-02-26T13:23:09;98152.38;;;22.45;30.59
16100;BME280;8154;50.830;12.082;2024-02-26T13:25:36;98151.59;;;22.20;29.57
16100;BME280;8154;50.830;12.082;2024-02-26T13:28:22;98155.84;;;22.03;29.70
16100;BME280;8154;50.830;12.082;2024-02-26T13:30:55;98144.13;;;21.80;30.03
16100;BME280;8154;50.830;12.082;2024-02-26T13:33:26;98163.16;;;21.83;30.34
16100;BME280;8154;50.830;12.082;2024-02-26T13:35:57;98169.34;;;21.77;29.95
16100;BME280;8154;50.830;12.082;2024-02-26T13:38:26;98172.00;;;21.71;29.89
16100;BME280;8154;50.830;12.082;2024-02-26T13:40:53;98169.59;;;21.63;29.72
16100;BME280;8154;50.830;12.082;2024-02-26T13:43:20;98177.34;;;21.64;29.93
16100;BME280;8154;50.830;12.082;2024-02-26T13:45:46;98173.75;;;21.52;30.00
16100;BME280;8154;50.830;12.082;2024-02-26T13:48:14;98180.72;;;21.53;29.97
16100;BME280;8154;50.830;12.082;2024-02-26T13:51:00;98178.50;;;21.44;30.52
16100;BME280;8154;50.830;12.082;2024-02-26T13:53:29;98188.50;;;21.48;30.78
16100;BME280;8154;50.830;12.082;2024-02-26T13:55:57;98182.75;;;21.51;30.98
16100;BME280;8154;50.830;12.082;2024-02-26T13:58:27;98186.59;;;21.55;31.18
16100;BME280;8154;50.830;12.082;2024-02-26T14:00:56;98194.53;;;21.68;31.13
16100;BME280;8154;50.830;12.082;2024-02-26T14:03:22;98188.94;;;21.83;31.22
16100;BME280;8154;50.830;12.082;2024-02-26T14:05:49;98186.41;;;21.94;31.32
16100;BME280;8154;50.830;12.082;2024-02-26T14:08:15;98186.13;;;22.02;31.34
16100;BME280;8154;50.830;12.082;2024-02-26T14:10:41;98189.53;;;22.09;31.46
16100;BME280;8154;50.830;12.082;2024-02-26T14:13:09;98184.63;;;22.13;31.48
16100;BME280;8154;50.830;12.082;2024-02-26T14:15:37;98180.47;;;22.17;31.58
16100;BME280;8154;50.830;12.082;2024-02-26T14:18:08;98192.59;;;22.13;31.58